Time;durP1;ratioP1;P1;durP2;ratioP2;P2;SDS_P1;SDS_P2;PMS_P1;PMS_P2;Temp;Humidity;BMP_temperature;BMP_pressure;BME280_temperature;BME280_humidity;BME280_pressure;Samples;Min_cycle;Max_cycle;Signal;HPM_P1;HPM_P2
2021/01/04 00:01:35;;;;;;;15.57;8.00;;;;;;;6.58;80.98;93471.81;5074110;28;20033;-43
2021/01/04 00:04:19;;;;;;;15.00;8.32;;;;;;;6.49;80.97;93467.47;5074423;28;20031;-43
2021/01/04 00:07:06;;;;;;;30.52;13.65;;;;;;;6.56;80.93;93468.88;5073241;28;20021;-42
2021/01/04 00:09:53;;;;;;;17.95;9.25;;;;;;;6.43;81.36;93463.34;5072528;28;20028;-41
2021/01/04 00:12:25;;;;;;;34.22;15.85;;;;;;;6.49;81.51;93467.47;5072595;28;20025;-42
2021/01/04 00:14:57;;;;;;;18.52;9.95;;;;;;;6.46;81.53;93465.75;5054731;28;20485;-42
2021/01/04 00:17:52;;;;;;;18.58;10.20;;;;;;;6.46;81.24;93473.25;5072414;28;20021;-41
2021/01/04 00:20:42;;;;;;;26.38;13.00;;;;;;;6.51;81.75;93464.19;5054347;28;20412;-44
2021/01/04 00:23:38;;;;;;;20.50;9.85;;;;;;;6.13;81.38;93458.00;5056408;28;20035;-48
2021/01/04 00:26:12;;;;;;;13.43;7.72;;;;;;;5.82;81.87;93451.19;5074323;28;20028;-44
2021/01/04 00:28:38;;;;;;;18.67;8.07;;;;;;;5.79;82.31;93457.69;5056463;28;20078;-44
2021/01/04 00:31:21;;;;;;;13.57;7.70;;;;;;;6.00;81.57;93460.69;5074060;28;20412;-43
2021/01/04 00:33:50;;;;;;;13.57;7.50;;;;;;;5.78;81.88;93456.19;5074168;28;20028;-44
2021/01/04 00:36:22;;;;;;;15.23;7.65;;;;;;;5.93;81.37;93461.28;5074057;28;20020;-43
2021/01/04 00:39:09;;;;;;;15.55;7.93;;;;;;;5.93;81.13;93448.31;5056230;28;20066;-43
2021/01/04 00:41:43;;;;;;;16.63;8.30;;;;;;;6.07;80.85;93455.34;5074144;28;20039;-44
2021/01/04 00:44:20;;;;;;;15.48;8.07;;;;;;;5.88;81.27;93432.69;5056244;28;20037;-44
2021/01/04 00:46:51;;;;;;;20.88;8.63;;;;;;;5.87;82.98;93425.72;5055902;28;20056;-43
2021/01/04 00:49:31;;;;;;;15.65;7.90;;;;;;;5.87;83.21;93414.78;5055964;28;20564;-44
2021/01/04 00:51:59;;;;;;;15.30;8.18;;;;;;;6.09;83.02;93417.19;5056044;28;20021;-44
2021/01/04 00:54:58;;;;;;;16.80;7.50;;;;;;;5.96;83.94;93406.19;5055847;28;20111;-43
2021/01/04 00:57:26;;;;;;;12.38;6.93;;;;;;;6.05;84.38;93405.81;5073558;28;20540;-44
2021/01/04 01:00:26;;;;;;;14.40;7.70;;;;;;;6.33;84.34;93416.34;5073580;28;20029;-45
2021/01/04 01:03:19;;;;;;;18.27;8.45;;;;;;;6.23;84.14;93409.78;5073594;28;20416;-43
2021/01/04 01:06:14;;;;;;;16.48;8.27;;;;;;;6.21;84.23;93412.31;5073443;28;20032;-43
2021/01/04 01:08:40;;;;;;;12.57;6.97;;;;;;;6.39;83.62;93419.03;5055677;28;20501;-44
2021/01/04 01:11:06;;;;;;;13.85;7.43;;;;;;;6.49;83.41;93411.88;5073056;28;20031;-45
2021/01/04 01:13:51;;;;;;;13.00;6.35;;;;;;;6.59;83.65;93396.47;5073270;28;20024;-42
2021/01/04 01:16:26;;;;;;;13.98;7.03;;;;;;;6.65;84.59;93386.16;5055498;28;20078;-42
2021/01/04 01:19:15;;;;;;;20.45;8.80;;;;;;;6.64;84.28;93393.66;5073229;28;20032;-43
2021/01/04 01:21:46;;;;;;;43.97;21.80;;;;;;;6.64;83.95;93379.19;5073175;28;20085;-43
2021/01/04 01:24:12;;;;;;;71.70;32.75;;;;;;;6.77;83.35;93384.72;5073348;28;20025;-41
2021/01/04 01:26:40;;;;;;;37.55;19.38;;;;;;;6.77;83.26;93390.19;5073258;28;20150;-42
2021/01/04 01:29:24;;;;;;;61.35;29.85;;;;;;;6.88;82.50;93381.78;5073049;28;20416;-42
2021/01/04 01:32:04;;;;;;;56.83;29.88;;;;;;;6.73;83.12;93371.31;5072942;28;20549;-45
2021/01/04 01:34:33;;;;;;;40.75;21.83;;;;;;;6.58;84.48;93367.59;5055208;28;20029;-43
2021/01/04 01:37:01;;;;;;;29.37;15.17;;;;;;;6.65;84.58;93364.22;5072868;28;20032;-44
2021/01/04 01:39:56;;;;;;;21.67;13.53;;;;;;;6.67;84.39;93348.69;5072822;28;20800;-45
2021/01/04 01:42:50;;;;;;;29.85;15.98;;;;;;;6.65;84.33;93355.97;5054929;28;20308;-43
2021/01/04 01:45:19;;;;;;;13.25;8.63;;;;;;;6.69;84.14;93348.19;5072707;28;20463;-42
2021/01/04 01:47:55;;;;;;;9.77;6.68;;;;;;;6.80;84.06;93356.94;5054556;28;20418;-42
2021/01/04 01:50:44;;;;;;;15.57;7.43;;;;;;;6.79;83.94;93346.50;5054818;28;20020;-42
2021/01/04 01:53:15;;;;;;;;;;;;;;;6.75;84.02;93346.84;5057847;28;20043;-46
2021/01/04 01:55:49;;;;;;;13.82;6.32;;;;;;;6.67;83.83;93345.25;5072423;28;19999;-43
2021/01/04 01:58:17;;;;;;;14.32;7.28;;;;;;;6.70;83.62;93344.16;5072495;28;20059;-44
2021/01/04 02:00:59;;;;;;;14.23;7.22;;;;;;;6.62;84.05;93337.84;5071339;28;20569;-43
2021/01/04 02:03:53;;;;;;;13.30;6.68;;;;;;;6.60;83.84;93337.63;5072136;28;20090;-45
2021/01/04 02:06:28;;;;;;;16.67;7.07;;;;;;;6.56;84.11;93331.72;5054540;28;20055;-42
2021/01/04 02:09:12;;;;;;;12.45;6.95;;;;;;;6.56;84.08;93329.69;5054443;28;20033;-42
2021/01/04 02:11:59;;;;;;;15.02;7.32;;;;;;;6.56;83.73;93309.78;5072119;28;20035;-43
2021/01/04 02:14:27;;;;;;;9.75;5.28;;;;;;;6.58;83.48;93316.19;5054294;28;20029;-42
2021/01/04 02:17:02;;;;;;;8.05;5.38;;;;;;;6.64;83.36;93308.63;5072104;28;20032;-42
2021/01/04 02:19:38;;;;;;;12.25;6.63;;;;;;;6.73;82.50;93302.72;5054247;28;20028;-44
2021/01/04 02:22:28;;;;;;;11.77;6.05;;;;;;;6.62;82.73;93302.94;5053591;28;20029;-44
2021/01/04 02:24:54;;;;;;;10.50;5.40;;;;;;;6.57;83.14;93297.53;5071989;28;20024;-42
2021/01/04 02:27:24;;;;;;;11.77;5.90;;;;;;;6.67;82.68;93307.56;5071887;28;20031;-42
2021/01/04 02:29:49;;;;;;;10.45;6.55;;;;;;;6.67;82.96;93304.09;5071736;28;20024;-42
2021/01/04 02:32:15;;;;;;;8.82;5.90;;;;;;;6.57;82.67;93290.03;5071846;28;20496;-43
2021/01/04 02:34:50;;;;;;;9.93;5.63;;;;;;;6.73;82.46;93296.50;5071804;28;20070;-42
2021/01/04 02:37:16;;;;;;;8.07;5.35;;;;;;;6.69;82.22;93291.31;5053940;28;20028;-44
2021/01/04 02:39:52;;;;;;;12.15;6.07;;;;;;;6.69;82.27;93287.84;5071781;28;20020;-44
2021/01/04 02:42:27;;;;;;;10.60;5.47;;;;;;;6.53;83.19;93291.63;5071615;28;20070;-43
2021/01/04 02:44:54;;;;;;;8.23;5.68;;;;;;;6.51;83.27;93299.63;5071466;28;20020;-46
2021/01/04 02:47:22;;;;;;;15.63;5.95;;;;;;;6.64;83.06;93310.63;5071227;28;20509;-43
2021/01/04 02:49:52;;;;;;;9.55;5.80;;;;;;;6.64;83.23;93310.63;5071376;28;20119;-43
2021/01/04 02:52:32;;;;;;;7.93;4.68;;;;;;;6.57;83.68;93306.50;5053735;28;20111;-43
2021/01/04 02:55:06;;;;;;;9.55;5.68;;;;;;;6.57;83.78;93309.25;5053747;28;20121;-43
2021/01/04 02:57:35;;;;;;;11.75;6.57;;;;;;;6.62;83.81;93313.91;5053560;28;20032;-44
2021/01/04 03:00:07;;;;;;;12.43;7.32;;;;;;;6.65;84.21;93320.31;5071622;28;20035;-44
2021/01/04 03:02:44;;;;;;;18.38;8.85;;;;;;;6.61;84.74;93317.91;5053573;28;20033;-43
2021/01/04 03:05:13;;;;;;;13.57;7.80;;;;;;;6.65;85.19;93325.81;5053486;28;20535;-43
2021/01/04 03:07:38;;;;;;;15.80;8.43;;;;;;;6.63;85.61;93331.06;5053662;28;20035;-42
2021/01/04 03:10:16;;;;;;;16.23;8.38;;;;;;;6.68;85.66;93333.00;5071332;28;20497;-42
2021/01/04 03:12:41;;;;;;;10.88;6.10;;;;;;;6.72;85.17;93327.94;5071510;28;20459;-43
2021/01/04 03:15:39;;;;;;;10.48;5.75;;;;;;;6.92;84.15;93319.06;5053432;28;20024;-43
2021/01/04 03:18:07;;;;;;;11.18;6.05;;;;;;;6.99;83.61;93326.69;5032767;28;20044;-42
2021/01/04 03:20:33;;;;;;;11.75;6.53;;;;;;;6.99;83.70;93334.16;5071131;28;20099;-45
2021/01/04 03:22:58;;;;;;;10.05;6.38;;;;;;;7.01;83.26;93334.38;5053651;28;20459;-43
2021/01/04 03:25:42;;;;;;;10.73;5.80;;;;;;;7.01;83.38;93334.38;5071330;28;20408;-45
2021/01/04 03:28:26;;;;;;;9.65;5.70;;;;;;;7.09;82.85;93341.44;5053324;28;20060;-44
2021/01/04 03:30:52;;;;;;;11.88;6.40;;;;;;;7.04;82.98;93336.78;5071189;28;20024;-45
2021/01/04 03:33:18;;;;;;;10.82;6.25;;;;;;;7.00;83.21;93339.13;5072034;28;20024;-43
2021/01/04 03:35:44;;;;;;;12.50;6.10;;;;;;;7.17;83.05;93342.28;5075299;28;20396;-44
2021/01/04 03:38:10;;;;;;;12.38;6.65;;;;;;;7.30;82.14;93339.53;5075178;28;20031;-43
2021/01/04 03:40:35;;;;;;;15.68;7.40;;;;;;;7.21;82.50;93328.25;5075165;28;20161;-44
2021/01/04 03:43:01;;;;;;;12.70;7.68;;;;;;;7.24;82.55;93330.66;5074961;28;20111;-44
2021/01/04 03:45:26;;;;;;;42.38;23.00;;;;;;;7.23;82.52;93326.44;5075084;28;20404;-44
2021/01/04 03:47:51;;;;;;;12.00;8.10;;;;;;;7.27;82.20;93326.88;5074975;28;20049;-41
2021/01/04 03:50:17;;;;;;;39.03;19.08;;;;;;;7.28;81.97;93314.59;5074884;28;20432;-42
2021/01/04 03:52:43;;;;;;;67.40;33.67;;;;;;;7.40;81.31;93321.34;5074970;28;20020;-40
2021/01/04 03:55:10;;;;;;;14.55;8.02;;;;;;;7.27;81.76;93321.38;5074722;28;20478;-40
2021/01/04 03:57:35;;;;;;;11.00;6.80;;;;;;;7.22;82.66;93318.72;5074736;28;20035;-40
2021/01/04 04:00:01;;;;;;;12.25;7.45;;;;;;;7.29;82.52;93324.31;5074711;28;20428;-43
2021/01/04 04:02:26;;;;;;;10.43;6.60;;;;;;;7.25;82.73;93321.16;5074604;28;20081;-43
2021/01/04 04:04:52;;;;;;;9.48;5.80;;;;;;;7.16;83.27;93334.59;5074537;28;20020;-42
2021/01/04 04:07:17;;;;;;;11.27;6.57;;;;;;;7.13;83.39;93321.91;5074612;28;20121;-42
2021/01/04 04:09:46;;;;;;;11.65;6.47;;;;;;;7.07;83.18;93302.81;5074668;28;20031;-42
2021/01/04 04:12:12;;;;;;;12.73;7.65;;;;;;;7.20;83.16;93319.25;5074425;28;20020;-42
2021/01/04 04:14:37;;;;;;;13.27;7.25;;;;;;;7.30;82.88;93309.31;5074383;28;20020;-42
2021/01/04 04:17:03;;;;;;;12.30;7.82;;;;;;;7.38;82.22;93307.41;5074288;28;20489;-41
2021/01/04 04:19:28;;;;;;;13.80;7.45;;;;;;;7.36;82.33;93307.19;5074239;28;20025;-42
2021/01/04 04:21:53;;;;;;;15.77;8.18;;;;;;;7.45;81.87;93295.75;5074274;28;20024;-42
2021/01/04 04:24:20;;;;;;;11.40;6.95;;;;;;;7.44;81.47;93297.03;5074125;28;20077;-43
2021/01/04 04:26:46;;;;;;;14.98;8.30;;;;;;;7.50;81.57;93292.16;5074118;28;20546;-42
2021/01/04 04:29:12;;;;;;;13.65;7.50;;;;;;;7.48;81.15;93296.72;5074124;28;20024;-41
2021/01/04 04:31:44;;;;;;;11.35;8.00;;;;;;;7.47;81.39;93290.47;5074082;28;20485;-42
2021/01/04 04:34:10;;;;;;;12.27;7.45;;;;;;;7.32;81.38;93286.84;5074253;28;20081;-41
2021/01/04 04:36:36;;;;;;;14.95;8.45;;;;;;;7.37;81.51;93283.22;5074142;28;20095;-42
2021/01/04 04:39:01;;;;;;;11.60;7.60;;;;;;;7.32;81.90;93276.56;5073863;28;20020;-42
2021/01/04 04:41:31;;;;;;;12.57;7.07;;;;;;;7.30;81.72;93259.88;5073865;28;20025;-42
2021/01/04 04:44:34;;;;;;;10.82;7.07;;;;;;;7.43;81.48;93256.34;5073958;28;20530;-42
2021/01/04 04:47:15;;;;;;;16.90;8.43;;;;;;;7.44;81.01;93249.59;5068495;28;20127;-43
2021/01/04 04:49:46;;;;;;;11.90;6.93;;;;;;;7.44;80.41;93249.59;5055902;28;20028;-40
2021/01/04 04:52:44;;;;;;;15.55;8.98;;;;;;;7.43;80.90;93262.59;5073824;28;20070;-40
2021/01/04 04:55:41;;;;;;;10.05;6.38;;;;;;;7.29;81.64;93265.91;5055817;28;20036;-44
2021/01/04 04:58:29;;;;;;;12.13;6.93;;;;;;;7.28;81.40;93265.16;5055786;28;20024;-43
2021/01/04 05:01:10;;;;;;;9.65;5.97;;;;;;;7.22;82.08;93259.06;5073606;28;20032;-42
2021/01/04 05:03:54;;;;;;;13.68;7.28;;;;;;;7.20;82.00;93261.59;5055821;28;20033;-41
2021/01/04 05:06:26;;;;;;;10.88;6.75;;;;;;;7.28;81.83;93259.69;5073321;28;20029;-43
2021/01/04 05:09:18;;;;;;;14.13;8.30;;;;;;;7.31;81.73;93255.88;5055611;28;20024;-42
2021/01/04 05:11:47;;;;;;;12.98;7.68;;;;;;;7.27;82.06;93251.97;5073754;28;20027;-45
2021/01/04 05:14:17;;;;;;;11.40;6.93;;;;;;;7.15;82.75;93243.22;5055596;28;20028;-44
2021/01/04 05:16:51;;;;;;;9.38;5.60;;;;;;;7.25;82.24;93236.06;5055904;28;20025;-43
2021/01/04 05:19:50;;;;;;;11.40;6.22;;;;;;;7.16;82.72;93239.22;5073323;28;20078;-43
2021/01/04 05:22:30;;;;;;;7.40;4.63;;;;;;;7.27;82.33;93230.00;5073202;28;20409;-44
2021/01/04 05:25:18;;;;;;;7.95;5.25;;;;;;;7.23;82.36;93246.81;5073219;28;20029;-44
2021/01/04 05:28:02;;;;;;;6.90;4.95;;;;;;;7.21;82.33;93243.84;5073093;28;20021;-43
2021/01/04 05:30:36;;;;;;;9.73;5.32;;;;;;;7.13;82.68;93231.31;5073034;28;20024;-43
2021/01/04 05:33:30;;;;;;;10.88;6.00;;;;;;;7.12;82.42;93236.06;5072808;28;20031;-44
2021/01/04 05:36:07;;;;;;;8.40;5.75;;;;;;;7.05;82.71;93242.22;5055092;28;20032;-43
2021/01/04 05:39:04;;;;;;;7.38;4.70;;;;;;;6.89;83.46;93229.56;5055021;28;20396;-44
2021/01/04 05:41:42;;;;;;;9.35;5.60;;;;;;;6.91;83.21;93232.50;5038293;28;20119;-44
2021/01/04 05:44:29;;;;;;;6.07;4.30;;;;;;;6.80;83.70;93219.00;5055048;28;20028;-41
2021/01/04 05:47:21;;;;;;;9.98;5.53;;;;;;;6.78;83.74;93218.81;5051515;28;20049;-42
2021/01/04 05:50:05;;;;;;;6.90;4.65;;;;;;;6.63;84.36;93218.59;5052893;28;20147;-44
2021/01/04 05:52:30;;;;;;;9.15;4.50;;;;;;;6.52;84.75;93199.66;5051757;28;20401;-43
2021/01/04 05:54:56;;;;;;;7.03;4.20;;;;;;;6.52;85.03;93216.09;5052678;28;20032;-44
2021/01/04 05:57:21;;;;;;;7.88;4.72;;;;;;;6.51;85.15;93209.13;5051351;28;20028;-43
2021/01/04 05:59:48;;;;;;;6.25;4.00;;;;;;;6.46;85.13;93197.00;5052594;28;20405;-43
2021/01/04 06:02:23;;;;;;;10.85;6.20;;;;;;;6.50;85.30;93199.41;5052444;28;20029;-41
2021/01/04 06:04:48;;;;;;;7.10;4.50;;;;;;;6.46;85.23;93180.53;5052525;28;20463;-43
2021/01/04 06:07:14;;;;;;;7.78;4.40;;;;;;;6.45;84.99;93159.16;5052413;28;20021;-43
2021/01/04 06:09:39;;;;;;;7.22;4.22;;;;;;;6.57;84.77;93176.84;5035149;28;20059;-43
2021/01/04 06:12:08;;;;;;;10.80;4.57;;;;;;;6.49;85.01;93174.00;5032472;28;20071;-41
2021/01/04 06:14:34;;;;;;;;;;;;;;;6.53;85.09;93171.69;5032836;28;20436;-42
2021/01/04 06:17:03;;;;;;;11.43;5.38;;;;;;;6.59;84.87;93182.53;5032509;28;20393;-41
2021/01/04 06:19:32;;;;;;;10.98;4.85;;;;;;;6.51;84.85;93179.72;5032513;28;20068;-43
2021/01/04 06:22:00;;;;;;;9.45;5.03;;;;;;;6.47;85.35;93186.78;5032126;28;20064;-41
2021/01/04 06:24:32;;;;;;;8.35;5.75;;;;;;;6.46;85.49;93194.25;5030894;28;20098;-42
2021/01/04 06:27:05;;;;;;;8.65;5.00;;;;;;;6.45;85.58;93205.75;5032272;28;20509;-43
2021/01/04 06:29:35;;;;;;;8.70;4.70;;;;;;;6.42;85.98;93198.59;5031087;28;20029;-42
2021/01/04 06:32:01;;;;;;;7.80;4.80;;;;;;;6.46;86.22;93199.75;5047764;28;20104;-41
2021/01/04 06:34:34;;;;;;;8.35;4.68;;;;;;;6.62;85.67;93189.72;5051809;28;20494;-41
2021/01/04 06:37:03;;;;;;;7.30;4.40;;;;;;;6.76;84.87;93207.63;5034507;28;20033;-42
2021/01/04 06:39:32;;;;;;;7.45;5.90;;;;;;;6.76;84.34;93188.41;5050709;28;20413;-43
2021/01/04 06:42:18;;;;;;;7.20;4.25;;;;;;;6.84;84.39;93192.72;5051805;28;20086;-41
2021/01/04 06:45:01;;;;;;;26.60;6.40;;;;;;;6.92;84.28;93181.09;5051849;28;20455;-42
2021/01/04 06:47:36;;;;;;;11.80;5.10;;;;;;;6.93;83.87;93186.06;5062239;28;20084;-42
2021/01/04 06:50:10;;;;;;;12.40;7.25;;;;;;;6.99;83.84;93174.97;5071632;28;20024;-45
2021/01/04 06:52:41;;;;;;;10.05;5.82;;;;;;;7.01;83.79;93175.91;5071792;28;20445;-43
2021/01/04 06:55:34;;;;;;;6.20;4.05;;;;;;;7.10;83.19;93172.72;5071539;28;20416;-42
2021/01/04 06:58:06;;;;;;;8.02;4.47;;;;;;;7.16;82.76;93183.56;5071551;28;20066;-43
2021/01/04 07:00:50;;;;;;;10.30;4.18;;;;;;;7.06;83.09;93172.31;5071627;28;20471;-46
2021/01/04 07:03:30;;;;;;;5.68;4.10;;;;;;;7.17;83.14;93177.53;5071616;28;20550;-42
2021/01/04 07:06:26;;;;;;;6.20;4.10;;;;;;;7.14;83.32;93178.63;5071691;28;20035;-43
2021/01/04 07:09:01;;;;;;;5.65;3.92;;;;;;;7.14;83.31;93188.88;5071265;28;20025;-42
2021/01/04 07:11:39;;;;;;;10.05;5.03;;;;;;;7.12;83.63;93175.69;5071354;28;20032;-43
2021/01/04 07:14:20;;;;;;;6.55;3.85;;;;;;;7.28;83.30;93169.06;5053660;28;20085;-42
2021/01/04 07:17:01;;;;;;;12.10;5.30;;;;;;;7.25;83.26;93159.16;5059755;28;20029;-42
2021/01/04 07:19:32;;;;;;;9.57;4.60;;;;;;;7.43;82.36;93160.22;5061422;28;21466;-42
2021/01/04 07:22:05;;;;;;;6.82;4.47;;;;;;;7.40;82.52;93164.06;5061788;28;20581;-45
2021/01/04 07:24:49;;;;;;;7.88;4.30;;;;;;;7.45;82.23;93169.41;5039062;28;20516;-42
2021/01/04 07:27:21;;;;;;;6.82;4.10;;;;;;;7.41;82.39;93163.53;5063252;28;20107;-45
2021/01/04 07:30:03;;;;;;;7.30;4.10;;;;;;;7.25;82.76;93130.97;5070066;28;20060;-43
2021/01/04 07:32:54;;;;;;;7.22;4.38;;;;;;;7.32;83.15;93155.72;5030244;28;20063;-42
2021/01/04 07:35:34;;;;;;;6.90;4.07;;;;;;;7.28;83.57;93141.59;5055951;28;20029;-42
2021/01/04 07:38:31;;;;;;;6.90;4.15;;;;;;;7.35;83.67;93151.19;5054497;28;20032;-42
2021/01/04 07:41:18;;;;;;;10.13;4.53;;;;;;;7.33;84.15;93148.97;5009456;28;20036;-42
2021/01/04 07:44:34;;;;;;;6.32;4.43;;;;;;;7.32;84.24;93150.25;5059308;28;20025;-40
2021/01/04 07:47:49;;;;;;;7.75;4.07;;;;;;;7.32;83.82;93146.78;5020118;28;20048;-42
2021/01/04 07:51:16;;;;;;;8.73;4.05;;;;;;;7.29;84.62;93140.34;5008350;28;20036;-41
2021/01/04 07:53:47;;;;;;;5.53;3.58;;;;;;;7.35;84.43;93135.44;4957238;28;20025;-41
2021/01/04 07:56:30;;;;;;;5.80;3.80;;;;;;;7.35;84.80;93134.72;4958851;28;20078;-44
2021/01/04 07:59:32;;;;;;;7.72;4.32;;;;;;;7.34;85.13;93133.25;5018675;28;20398;-42
2021/01/04 08:02:05;;;;;;;7.32;3.78;;;;;;;7.29;85.08;93123.88;5058088;28;20559;-42
2021/01/04 08:04:46;;;;;;;6.70;4.28;;;;;;;7.31;85.11;93115.09;5061995;28;20017;-43
2021/01/04 08:07:46;;;;;;;6.50;3.70;;;;;;;7.25;85.67;93106.25;5040180;28;20519;-42
2021/01/04 08:10:34;;;;;;;6.53;4.07;;;;;;;7.32;85.83;93108.34;5057962;28;20033;-42
2021/01/04 08:13:02;;;;;;;5.75;3.78;;;;;;;7.33;85.93;93105.03;5060151;28;20025;-43
2021/01/04 08:15:40;;;;;;;8.02;4.15;;;;;;;7.35;85.63;93099.00;5049162;28;20029;-42
2021/01/04 08:18:12;;;;;;;8.82;4.90;;;;;;;7.36;86.08;93098.47;5050032;28;20123;-43
2021/01/04 08:20:44;;;;;;;14.07;5.03;;;;;;;7.38;86.03;93109.69;5050734;28;20037;-41
2021/01/04 08:23:24;;;;;;;5.75;3.53;;;;;;;7.42;85.57;93101.84;5050968;28;20406;-42
2021/01/04 08:25:57;;;;;;;6.47;3.67;;;;;;;7.35;85.95;93091.50;5053116;28;20056;-42
2021/01/04 08:28:34;;;;;;;7.80;4.10;;;;;;;7.44;86.13;93090.31;5052904;28;20036;-43
2021/01/04 08:31:17;;;;;;;9.57;4.38;;;;;;;7.54;85.90;93094.03;5050665;28;20099;-43
2021/01/04 08:33:56;;;;;;;5.45;3.95;;;;;;;7.68;85.74;93097.44;5051913;28;20078;-44
2021/01/04 08:36:49;;;;;;;9.23;4.22;;;;;;;7.76;84.78;93087.97;5051990;28;20036;-42
2021/01/04 08:39:31;;;;;;;6.90;3.90;;;;;;;7.93;84.31;93093.03;5065948;28;20036;-43
2021/01/04 08:42:14;;;;;;;9.05;3.90;;;;;;;7.99;83.98;93085.41;5072884;28;20090;-41
2021/01/04 08:45:03;;;;;;;8.00;3.95;;;;;;;7.95;84.37;93088.47;5066811;28;20390;-40
2021/01/04 08:47:33;;;;;;;;;;;;;;;8.09;83.83;93086.34;5066374;28;20490;-41
2021/01/04 08:50:08;;;;;;;6.43;3.78;;;;;;;8.16;82.66;93071.94;5055226;28;20361;-40
2021/01/04 08:52:48;;;;;;;6.57;3.35;;;;;;;8.10;82.55;93072.06;5073046;28;20051;-40
2021/01/04 08:55:31;;;;;;;4.68;3.17;;;;;;;8.15;82.08;93064.94;5040110;28;20029;-41
2021/01/04 08:58:00;;;;;;;4.82;3.38;;;;;;;8.11;82.33;93059.06;5034721;28;20025;-39
2021/01/04 09:00:30;;;;;;;11.45;3.60;;;;;;;8.08;83.27;93046.38;5034250;28;20021;-39
2021/01/04 09:02:55;;;;;;;;;;;;;;;8.23;82.27;93054.69;5052925;28;20025;-39
2021/01/04 09:05:33;;;;;;;6.35;3.28;;;;;;;8.35;82.12;93040.16;5034992;28;19913;-43
2021/01/04 09:07:59;;;;;;;6.75;3.67;;;;;;;8.24;81.64;93036.94;5052414;28;20058;-40
2021/01/04 09:10:41;;;;;;;4.38;2.97;;;;;;;8.40;81.44;93027.50;5020318;28;20021;-40
2021/01/04 09:13:09;;;;;;;5.50;3.35;;;;;;;8.34;80.98;93024.16;5033727;28;20090;-40
2021/01/04 09:15:36;;;;;;;7.57;3.75;;;;;;;8.38;81.48;93013.56;5050885;28;20025;-42
2021/01/04 09:18:01;;;;;;;7.35;3.65;;;;;;;8.26;81.55;93020.66;5049959;28;20021;-40
2021/01/04 09:20:44;;;;;;;9.15;4.78;;;;;;;8.46;81.29;93016.31;5050979;28;20482;-41
2021/01/04 09:23:18;;;;;;;9.95;4.72;;;;;;;8.55;81.22;93024.81;5051631;28;20843;-43
2021/01/04 09:26:25;;;;;;;7.63;4.05;;;;;;;8.83;80.11;93024.69;5050842;28;20168;-40
2021/01/04 09:29:19;;;;;;;6.45;4.35;;;;;;;8.80;80.56;93031.28;5035763;28;20567;-41
2021/01/04 09:32:06;;;;;;;6.57;3.75;;;;;;;8.77;79.73;93040.63;5054837;28;20033;-42
2021/01/04 09:34:31;;;;;;;6.78;4.50;;;;;;;8.57;80.84;93030.50;5054188;28;20021;-41
2021/01/04 09:37:05;;;;;;;7.70;3.83;;;;;;;8.50;81.45;93017.44;5049497;28;20025;-42
2021/01/04 09:39:32;;;;;;;5.30;4.18;;;;;;;8.38;81.83;93016.31;5050345;28;20137;-41
2021/01/04 09:42:00;;;;;;;7.03;4.15;;;;;;;8.29;82.28;93014.78;5032480;28;20024;-40
2021/01/04 09:44:26;;;;;;;7.45;4.35;;;;;;;8.18;82.89;93008.88;5068505;28;20028;-42
2021/01/04 09:46:57;;;;;;;9.35;4.45;;;;;;;8.23;83.25;93013.47;5053072;28;20067;-42
2021/01/04 09:49:28;;;;;;;8.00;4.40;;;;;;;8.11;84.42;93017.81;5049463;28;20103;-43
2021/01/04 09:52:07;;;;;;;12.90;5.88;;;;;;;8.06;85.13;92993.94;5045046;28;20029;-42
2021/01/04 09:54:45;;;;;;;7.38;5.30;;;;;;;7.93;85.32;93000.31;5059768;28;20028;-42
2021/01/04 09:57:11;;;;;;;10.13;5.28;;;;;;;7.94;85.64;93003.81;5058999;28;20119;-44
2021/01/04 09:59:40;;;;;;;15.77;8.00;;;;;;;8.02;85.84;92996.31;5047691;28;20681;-42
2021/01/04 10:02:17;;;;;;;11.55;5.82;;;;;;;8.13;85.69;92994.00;5068594;28;20056;-43
2021/01/04 10:04:43;;;;;;;13.27;7.68;;;;;;;8.14;85.91;92997.50;5070290;28;20028;-42
2021/01/04 10:07:11;;;;;;;9.90;6.30;;;;;;;8.17;85.55;92993.63;5066272;28;20029;-42
2021/01/04 10:09:43;;;;;;;8.95;5.70;;;;;;;8.20;85.92;92998.81;5048935;28;20104;-42
2021/01/04 10:12:10;;;;;;;12.68;6.35;;;;;;;8.24;85.56;92981.94;5049037;28;20112;-43
2021/01/04 10:14:35;;;;;;;10.68;7.13;;;;;;;8.20;85.53;92985.06;5048918;28;20033;-42
2021/01/04 10:17:02;;;;;;;18.50;8.10;;;;;;;8.13;86.74;92977.50;5057837;28;20142;-45
2021/01/04 10:19:51;;;;;;;10.65;6.60;;;;;;;8.26;86.41;92974.66;5052667;28;20517;-44
2021/01/04 10:22:38;;;;;;;17.50;7.13;;;;;;;8.32;86.49;92969.72;5040831;28;20528;-43
2021/01/04 10:25:34;;;;;;;11.82;7.05;;;;;;;8.28;86.34;92958.34;5049826;28;20033;-43
2021/01/04 10:28:00;;;;;;;11.85;7.22;;;;;;;8.35;86.25;92949.38;5050080;28;20029;-43
2021/01/04 10:30:27;;;;;;;15.77;7.35;;;;;;;8.27;86.05;92937.59;5048940;28;20393;-43
2021/01/04 10:33:09;;;;;;;14.32;7.38;;;;;;;8.29;86.56;92937.78;5049786;28;20480;-45
2021/01/04 10:35:35;;;;;;;11.10;6.50;;;;;;;8.23;86.68;92941.97;5048612;28;20040;-44
2021/01/04 10:38:13;;;;;;;13.80;7.57;;;;;;;8.29;87.19;92931.56;5048702;28;20029;-43
2021/01/04 10:40:46;;;;;;;13.77;7.85;;;;;;;8.27;86.98;92923.84;5058343;28;20449;-44
2021/01/04 10:43:18;;;;;;;8.98;6.00;;;;;;;8.29;86.71;92924.03;5061919;28;20043;-43
2021/01/04 10:45:44;;;;;;;19.88;7.38;;;;;;;8.37;86.70;92919.31;5056314;28;20029;-44
2021/01/04 10:48:12;;;;;;;11.30;6.93;;;;;;;8.40;86.67;92917.47;5049353;28;20110;-42
2021/01/04 10:50:40;;;;;;;12.20;7.15;;;;;;;8.47;87.25;92914.00;5052494;28;20029;-44
2021/01/04 10:53:12;;;;;;;15.13;7.38;;;;;;;8.59;86.33;92919.88;5048867;28;20576;-43
2021/01/04 10:55:57;;;;;;;12.40;7.30;;;;;;;8.68;86.41;92909.09;5064841;28;20058;-43
2021/01/04 10:58:27;;;;;;;10.90;6.53;;;;;;;8.83;85.97;92903.59;5043276;28;20044;-44
2021/01/04 11:01:15;;;;;;;10.18;6.18;;;;;;;8.97;84.65;92887.59;5065335;28;20055;-43
2021/01/04 11:03:46;;;;;;;16.48;6.90;;;;;;;8.91;83.73;92889.81;5044098;28;20020;-42
2021/01/04 11:06:21;;;;;;;11.52;6.53;;;;;;;8.86;83.75;92874.19;5041335;28;20441;-43
2021/01/04 11:08:47;;;;;;;10.48;5.78;;;;;;;8.90;83.80;92871.84;5062065;28;20033;-42
2021/01/04 11:11:35;;;;;;;16.92;7.85;;;;;;;8.74;84.22;92873.84;5068568;28;20013;-43
2021/01/04 11:14:08;;;;;;;12.25;6.75;;;;;;;8.61;84.43;92857.53;5068736;28;20033;-43
2021/01/04 11:16:48;;;;;;;12.10;7.35;;;;;;;8.49;85.12;92856.41;5059116;28;20525;-42
2021/01/04 11:19:28;;;;;;;14.48;7.50;;;;;;;8.48;85.63;92857.69;5048756;28;20029;-42
2021/01/04 11:21:55;;;;;;;15.00;8.50;;;;;;;8.45;85.93;92849.78;5048619;28;20075;-42
2021/01/04 11:24:20;;;;;;;14.93;7.57;;;;;;;8.50;86.35;92841.38;5048764;28;20777;-43
2021/01/04 11:26:46;;;;;;;25.13;12.05;;;;;;;8.63;85.92;92830.19;5056030;28;20770;-41
2021/01/04 11:29:12;;;;;;;23.60;12.98;;;;;;;8.69;86.03;92835.50;5058871;28;20089;-42
2021/01/04 11:31:38;;;;;;;17.83;10.82;;;;;;;8.66;85.80;92825.59;5060029;28;20046;-43
2021/01/04 11:34:04;;;;;;;15.85;8.18;;;;;;;8.66;84.99;92829.09;5064710;28;20158;-41
2021/01/04 11:36:30;;;;;;;19.25;10.60;;;;;;;8.65;85.47;92832.38;5064847;28;20027;-43
2021/01/04 11:38:56;;;;;;;13.88;9.13;;;;;;;8.65;86.13;92835.88;5054582;28;20021;-42
2021/01/04 11:41:22;;;;;;;18.35;11.13;;;;;;;8.68;85.58;92823.78;5048606;28;20026;-42
2021/01/04 11:43:48;;;;;;;14.57;7.88;;;;;;;8.71;85.51;92828.16;5049218;28;20036;-43
2021/01/04 11:46:16;;;;;;;13.80;8.73;;;;;;;8.78;85.03;92832.19;5049356;28;20052;-42
2021/01/04 11:48:42;;;;;;;14.63;7.67;;;;;;;8.60;85.41;92825.78;5050683;28;20025;-44
2021/01/04 11:51:08;;;;;;;16.17;9.07;;;;;;;8.63;85.50;92821.94;5064956;28;20028;-42
2021/01/04 11:53:33;;;;;;;16.35;7.78;;;;;;;8.57;85.93;92806.88;5066276;28;20519;-41
2021/01/04 11:55:59;;;;;;;21.95;8.10;;;;;;;8.69;85.25;92794.22;5073169;28;20024;-43
2021/01/04 11:58:24;;;;;;;17.70;8.85;;;;;;;8.67;85.30;92796.78;5078400;28;20085;-43
2021/01/04 12:00:51;;;;;;;18.50;10.45;;;;;;;8.64;85.87;92806.16;5084168;28;20035;-43
2021/01/04 12:03:16;;;;;;;16.02;10.35;;;;;;;8.64;85.46;92795.88;5055588;28;21768;-42
2021/01/04 12:05:42;;;;;;;13.20;8.02;;;;;;;8.53;85.71;92799.00;5072495;28;20021;-43
2021/01/04 12:08:08;;;;;;;16.58;7.88;;;;;;;8.55;85.83;92790.19;5072933;28;20099;-44
2021/01/04 12:10:33;;;;;;;21.30;9.75;;;;;;;8.55;85.80;92792.94;5072487;28;20450;-44
2021/01/04 12:12:59;;;;;;;16.75;9.27;;;;;;;8.58;86.34;92794.59;5072547;28;20024;-42
2021/01/04 12:15:24;;;;;;;14.38;8.63;;;;;;;8.53;85.74;92776.25;5072702;28;20078;-43